首页
METAR-TAF:

METAR-TAF

机场 :

布尔戈斯, 西班牙

纬度: 42-22N, 经度: 003-38W, 海拔: 894米

当前天气观测

该预报发布于25分钟前的21:00 UTC
静风
温度 11°C
湿度 100%
气压 1011 hPa
能见度10公里或以上
阴天层高于900英尺
小雨

METAR: LEBG 062100Z AUTO 00000KT 9999 -RA OVC009 11/11 Q1011

时间: 23:25 (21:25 UTC)

预报

该预报发布于4小时和25分钟前的17:00 UTC
预报有效从06日的 18点(UTC)到 07日的 03点(UTC)
风速12节,风向北转东北
能见度10公里或以上
散云层高于5000英尺
短暂存在
从 06日的 18点(UTC)到 06日的 24点(UTC)
散云层高于3000英尺, 塔状积云.
雨, 阵雨
几率 40% :
短暂存在
从 06日的 18点(UTC)到 06日的 20点(UTC)
风速15节,风向多变,有时为25节阵风
能見度: 3000
散云层高于3000英尺, 积雨云.
雷暴, 雨

TAF: LEBG 061700Z 0618/0703 03012KT 9999 SCT050 TEMPO 0618/0624 RA SHRA SCT030TCU PROB40 TEMPO 0618/0620 VRB15G25KT 3000 TSRA SCT030CB

超过4000个机场的气象观测和天气预报(METAR&TAF报告)。

可查询的气象台以黄色和红色小点在地图上表示。

将鼠标移到小点上方,可查看气象台名称。

然后点击查看天气观测和预报。

如需切换地图:点击带黑十字的绿色按钮放大地图;点击带横线的绿色按钮缩小地图;或者点击绿色箭头查看邻近地区的地图。


METAR-TAF: